sensor_id;sensor_type;location;lat;lon;timestamp;temperature;humidity
9219;DHT22;4644;48.858;9.184;2022-12-05T00:00:52;3.10;99.90
9219;DHT22;4644;48.858;9.184;2022-12-05T00:03:20;3.10;99.90
9219;DHT22;4644;48.858;9.184;2022-12-05T00:05:47;3.10;99.90
9219;DHT22;4644;48.858;9.184;2022-12-05T00:08:14;3.10;99.90
9219;DHT22;4644;48.858;9.184;2022-12-05T00:10:41;3.00;99.90
9219;DHT22;4644;48.858;9.184;2022-12-05T00:13:09;3.00;99.90
9219;DHT22;4644;48.858;9.184;2022-12-05T00:15:39;3.10;99.90
9219;DHT22;4644;48.858;9.184;2022-12-05T00:18:08;3.00;99.90
9219;DHT22;4644;48.858;9.184;2022-12-05T00:20:35;3.00;99.90
9219;DHT22;4644;48.858;9.184;2022-12-05T00:23:02;3.00;99.90
9219;DHT22;4644;48.858;9.184;2022-12-05T00:25:29;3.10;99.90
9219;DHT22;4644;48.858;9.184;2022-12-05T00:27:56;3.10;99.90
9219;DHT22;4644;48.858;9.184;2022-12-05T00:30:23;3.00;99.90
9219;DHT22;4644;48.858;9.184;2022-12-05T00:32:51;3.00;99.90
9219;DHT22;4644;48.858;9.184;2022-12-05T00:35:18;3.00;99.90
9219;DHT22;4644;48.858;9.184;2022-12-05T00:37:45;3.00;99.90
9219;DHT22;4644;48.858;9.184;2022-12-05T00:40:13;3.00;99.90
9219;DHT22;4644;48.858;9.184;2022-12-05T00:42:40;3.00;99.90
9219;DHT22;4644;48.858;9.184;2022-12-05T00:45:07;3.00;99.90
9219;DHT22;4644;48.858;9.184;2022-12-05T00:47:35;3.00;99.90
9219;DHT22;4644;48.858;9.184;2022-12-05T00:50:05;3.00;99.90
9219;DHT22;4644;48.858;9.184;2022-12-05T00:52:33;3.00;99.90
9219;DHT22;4644;48.858;9.184;2022-12-05T00:55:00;3.00;99.90
9219;DHT22;4644;48.858;9.184;2022-12-05T00:57:27;3.00;99.90
9219;DHT22;4644;48.858;9.184;2022-12-05T00:59:54;3.00;99.90
9219;DHT22;4644;48.858;9.184;2022-12-05T01:02:21;3.00;99.90
9219;DHT22;4644;48.858;9.184;2022-12-05T01:04:48;2.90;99.90
9219;DHT22;4644;48.858;9.184;2022-12-05T01:07:16;2.90;99.90
9219;DHT22;4644;48.858;9.184;2022-12-05T01:09:44;2.90;99.90
9219;DHT22;4644;48.858;9.184;2022-12-05T01:12:10;3.00;99.90
9219;DHT22;4644;48.858;9.184;2022-12-05T01:14:37;2.90;99.90
9219;DHT22;4644;48.858;9.184;2022-12-05T01:17:04;3.00;99.90
9219;DHT22;4644;48.858;9.184;2022-12-05T01:19:32;3.00;99.90
9219;DHT22;4644;48.858;9.184;2022-12-05T01:21:59;2.90;99.90
9219;DHT22;4644;48.858;9.184;2022-12-05T01:24:28;2.90;99.90
9219;DHT22;4644;48.858;9.184;2022-12-05T01:26:55;2.90;99.90
9219;DHT22;4644;48.858;9.184;2022-12-05T01:29:23;2.80;99.90
9219;DHT22;4644;48.858;9.184;2022-12-05T01:31:51;2.70;99.90
9219;DHT22;4644;48.858;9.184;2022-12-05T01:34:19;2.70;99.90
9219;DHT22;4644;48.858;9.184;2022-12-05T01:36:46;2.70;99.90
9219;DHT22;4644;48.858;9.184;2022-12-05T01:39:14;2.70;99.90
9219;DHT22;4644;48.858;9.184;2022-12-05T01:41:44;2.70;99.90
9219;DHT22;4644;48.858;9.184;2022-12-05T01:47:17;2.70;99.90
9219;DHT22;4644;48.858;9.184;2022-12-05T01:49:44;2.70;99.90
9219;DHT22;4644;48.858;9.184;2022-12-05T01:52:14;2.70;99.90
9219;DHT22;4644;48.858;9.184;2022-12-05T01:54:43;2.70;99.90
9219;DHT22;4644;48.858;9.184;2022-12-05T01:57:14;2.60;99.90
9219;DHT22;4644;48.858;9.184;2022-12-05T01:59:43;2.60;99.90
9219;DHT22;4644;48.858;9.184;2022-12-05T02:02:11;2.60;99.90
9219;DHT22;4644;48.858;9.184;2022-12-05T02:04:49;2.60;99.90
9219;DHT22;4644;48.858;9.184;2022-12-05T02:07:21;2.70;99.90
9219;DHT22;4644;48.858;9.184;2022-12-05T02:09:48;2.70;99.90
9219;DHT22;4644;48.858;9.184;2022-12-05T02:12:19;2.70;99.90
9219;DHT22;4644;48.858;9.184;2022-12-05T02:14:59;2.70;99.90
9219;DHT22;4644;48.858;9.184;2022-12-05T02:17:42;2.60;99.90
9219;DHT22;4644;48.858;9.184;2022-12-05T02:20:21;2.60;99.90
9219;DHT22;4644;48.858;9.184;2022-12-05T02:26:23;2.50;99.90
9219;DHT22;4644;48.858;9.184;2022-12-05T02:29:25;2.50;99.90
9219;DHT22;4644;48.858;9.184;2022-12-05T02:32:02;2.50;99.90
9219;DHT22;4644;48.858;9.184;2022-12-05T02:34:34;2.60;99.90
9219;DHT22;4644;48.858;9.184;2022-12-05T02:37:06;2.60;99.90
9219;DHT22;4644;48.858;9.184;2022-12-05T02:39:42;2.60;99.90
9219;DHT22;4644;48.858;9.184;2022-12-05T02:42:14;2.60;99.90
9219;DHT22;4644;48.858;9.184;2022-12-05T02:44:46;2.60;99.90
9219;DHT22;4644;48.858;9.184;2022-12-05T02:47:20;2.70;99.90
9219;DHT22;4644;48.858;9.184;2022-12-05T02:49:49;2.70;99.90
9219;DHT22;4644;48.858;9.184;2022-12-05T02:52:18;2.80;99.90
9219;DHT22;4644;48.858;9.184;2022-12-05T02:54:47;2.80;99.90
9219;DHT22;4644;48.858;9.184;2022-12-05T02:57:16;2.80;99.90
9219;DHT22;4644;48.858;9.184;2022-12-05T02:59:43;2.90;99.90
9219;DHT22;4644;48.858;9.184;2022-12-05T03:02:23;2.90;99.90
9219;DHT22;4644;48.858;9.184;2022-12-05T03:04:50;2.90;99.90
9219;DHT22;4644;48.858;9.184;2022-12-05T03:07:18;2.90;99.90
9219;DHT22;4644;48.858;9.184;2022-12-05T03:09:49;2.90;99.90
9219;DHT22;4644;48.858;9.184;2022-12-05T03:12:18;2.80;99.90
9219;DHT22;4644;48.858;9.184;2022-12-05T03:14:51;2.90;99.90
9219;DHT22;4644;48.858;9.184;2022-12-05T03:17:23;3.00;99.90
9219;DHT22;4644;48.858;9.184;2022-12-05T03:19:55;3.00;99.90
9219;DHT22;4644;48.858;9.184;2022-12-05T03:22:29;3.00;99.90
9219;DHT22;4644;48.858;9.184;2022-12-05T03:24:57;3.00;99.90
9219;DHT22;4644;48.858;9.184;2022-12-05T03:27:27;3.00;99.90
9219;DHT22;4644;48.858;9.184;2022-12-05T03:29:57;3.00;99.90
9219;DHT22;4644;48.858;9.184;2022-12-05T03:32:32;3.00;99.90
9219;DHT22;4644;48.858;9.184;2022-12-05T03:35:05;3.00;99.90
9219;DHT22;4644;48.858;9.184;2022-12-05T03:37:40;2.90;99.90
9219;DHT22;4644;48.858;9.184;2022-12-05T03:40:16;2.90;99.90
9219;DHT22;4644;48.858;9.184;2022-12-05T03:42:49;2.90;99.90
9219;DHT22;4644;48.858;9.184;2022-12-05T03:45:24;3.00;99.90
9219;DHT22;4644;48.858;9.184;2022-12-05T03:48:00;3.00;99.90
9219;DHT22;4644;48.858;9.184;2022-12-05T03:50:30;3.00;99.90
9219;DHT22;4644;48.858;9.184;2022-12-05T03:53:02;3.00;99.90
9219;DHT22;4644;48.858;9.184;2022-12-05T03:55:34;3.00;99.90
9219;DHT22;4644;48.858;9.184;2022-12-05T03:58:06;3.00;99.90
9219;DHT22;4644;48.858;9.184;2022-12-05T04:00:37;3.00;99.90
9219;DHT22;4644;48.858;9.184;2022-12-05T04:03:11;3.10;99.90
9219;DHT22;4644;48.858;9.184;2022-12-05T04:05:43;3.10;99.90
9219;DHT22;4644;48.858;9.184;2022-12-05T04:08:15;3.10;99.90
9219;DHT22;4644;48.858;9.184;2022-12-05T04:10:47;3.10;99.90
9219;DHT22;4644;48.858;9.184;2022-12-05T04:13:17;3.10;99.90
9219;DHT22;4644;48.858;9.184;2022-12-05T04:15:49;3.10;99.90
9219;DHT22;4644;48.858;9.184;2022-12-05T04:18:40;3.10;99.90
9219;DHT22;4644;48.858;9.184;2022-12-05T04:21:17;3.20;99.90
9219;DHT22;4644;48.858;9.184;2022-12-05T04:24:09;3.20;99.90
9219;DHT22;4644;48.858;9.184;2022-12-05T04:27:14;3.20;99.90
9219;DHT22;4644;48.858;9.184;2022-12-05T04:29:53;3.20;99.90
9219;DHT22;4644;48.858;9.184;2022-12-05T04:32:38;3.20;99.90
9219;DHT22;4644;48.858;9.184;2022-12-05T04:35:21;3.20;99.90
9219;DHT22;4644;48.858;9.184;2022-12-05T04:38:10;3.20;99.90
9219;DHT22;4644;48.858;9.184;2022-12-05T04:40:47;3.20;99.90
9219;DHT22;4644;48.858;9.184;2022-12-05T04:43:21;3.20;99.90
9219;DHT22;4644;48.858;9.184;2022-12-05T04:45:53;3.20;99.90
9219;DHT22;4644;48.858;9.184;2022-12-05T04:48:38;3.20;99.90
9219;DHT22;4644;48.858;9.184;2022-12-05T04:51:26;3.20;99.90
9219;DHT22;4644;48.858;9.184;2022-12-05T04:54:01;3.20;99.90
9219;DHT22;4644;48.858;9.184;2022-12-05T04:56:33;3.20;99.90
9219;DHT22;4644;48.858;9.184;2022-12-05T04:59:05;3.20;99.90
9219;DHT22;4644;48.858;9.184;2022-12-05T05:01:44;3.20;99.90
9219;DHT22;4644;48.858;9.184;2022-12-05T05:04:21;3.20;99.90
9219;DHT22;4644;48.858;9.184;2022-12-05T05:06:54;3.20;99.90
9219;DHT22;4644;48.858;9.184;2022-12-05T05:09:29;3.30;99.90
9219;DHT22;4644;48.858;9.184;2022-12-05T05:12:00;3.20;99.90
9219;DHT22;4644;48.858;9.184;2022-12-05T05:14:28;3.30;99.90
9219;DHT22;4644;48.858;9.184;2022-12-05T05:16:56;3.30;99.90
9219;DHT22;4644;48.858;9.184;2022-12-05T05:19:26;3.30;99.90
9219;DHT22;4644;48.858;9.184;2022-12-05T05:21:53;3.30;99.90
9219;DHT22;4644;48.858;9.184;2022-12-05T05:24:20;3.30;99.90
9219;DHT22;4644;48.858;9.184;2022-12-05T05:26:48;3.30;99.90
9219;DHT22;4644;48.858;9.184;2022-12-05T05:29:16;3.30;99.90
9219;DHT22;4644;48.858;9.184;2022-12-05T05:31:44;3.30;99.90
9219;DHT22;4644;48.858;9.184;2022-12-05T05:34:11;3.30;99.90
9219;DHT22;4644;48.858;9.184;2022-12-05T05:36:42;3.30;99.90
9219;DHT22;4644;48.858;9.184;2022-12-05T05:39:12;3.30;99.90
9219;DHT22;4644;48.858;9.184;2022-12-05T05:41:40;3.30;99.90
9219;DHT22;4644;48.858;9.184;2022-12-05T05:44:07;3.30;99.90
9219;DHT22;4644;48.858;9.184;2022-12-05T05:46:34;3.30;99.90
9219;DHT22;4644;48.858;9.184;2022-12-05T05:49:02;3.30;99.90
9219;DHT22;4644;48.858;9.184;2022-12-05T05:51:29;3.20;99.90
9219;DHT22;4644;48.858;9.184;2022-12-05T05:53:58;3.20;99.90
9219;DHT22;4644;48.858;9.184;2022-12-05T05:56:26;3.20;99.90
9219;DHT22;4644;48.858;9.184;2022-12-05T05:58:58;3.20;99.90
9219;DHT22;4644;48.858;9.184;2022-12-05T06:01:26;3.20;99.90
9219;DHT22;4644;48.858;9.184;2022-12-05T06:03:53;3.30;99.90
9219;DHT22;4644;48.858;9.184;2022-12-05T06:06:21;3.30;99.90
9219;DHT22;4644;48.858;9.184;2022-12-05T06:08:48;3.30;99.90
9219;DHT22;4644;48.858;9.184;2022-12-05T06:11:18;3.30;99.90
9219;DHT22;4644;48.858;9.184;2022-12-05T06:13:46;3.30;99.90
9219;DHT22;4644;48.858;9.184;2022-12-05T06:16:15;3.40;99.90
9219;DHT22;4644;48.858;9.184;2022-12-05T06:18:42;3.40;99.90
9219;DHT22;4644;48.858;9.184;2022-12-05T06:21:10;3.40;99.90
9219;DHT22;4644;48.858;9.184;2022-12-05T06:23:43;3.40;99.90
9219;DHT22;4644;48.858;9.184;2022-12-05T06:26:12;3.40;99.90
9219;DHT22;4644;48.858;9.184;2022-12-05T06:28:41;3.40;99.90
9219;DHT22;4644;48.858;9.184;2022-12-05T06:31:09;3.40;99.90
9219;DHT22;4644;48.858;9.184;2022-12-05T06:33:37;3.40;99.90
9219;DHT22;4644;48.858;9.184;2022-12-05T06:36:06;3.40;99.90
9219;DHT22;4644;48.858;9.184;2022-12-05T06:38:33;3.50;99.90
9219;DHT22;4644;48.858;9.184;2022-12-05T06:41:04;3.40;99.90
9219;DHT22;4644;48.858;9.184;2022-12-05T06:43:32;3.40;99.90
9219;DHT22;4644;48.858;9.184;2022-12-05T06:46:03;3.50;99.90
9219;DHT22;4644;48.858;9.184;2022-12-05T06:48:30;3.40;99.90
9219;DHT22;4644;48.858;9.184;2022-12-05T06:50:57;3.40;99.90
9219;DHT22;4644;48.858;9.184;2022-12-05T06:53:25;3.40;99.90
9219;DHT22;4644;48.858;9.184;2022-12-05T06:55:56;3.40;99.90
9219;DHT22;4644;48.858;9.184;2022-12-05T06:58:26;3.40;99.90
9219;DHT22;4644;48.858;9.184;2022-12-05T07:00:53;3.40;99.90
9219;DHT22;4644;48.858;9.184;2022-12-05T07:03:39;3.40;99.90
9219;DHT22;4644;48.858;9.184;2022-12-05T07:06:08;3.40;99.90
9219;DHT22;4644;48.858;9.184;2022-12-05T07:08:35;3.40;99.90
9219;DHT22;4644;48.858;9.184;2022-12-05T07:11:03;3.40;99.90
9219;DHT22;4644;48.858;9.184;2022-12-05T07:13:30;3.40;99.90
9219;DHT22;4644;48.858;9.184;2022-12-05T07:15:58;3.40;99.90
9219;DHT22;4644;48.858;9.184;2022-12-05T07:18:25;3.50;99.90
9219;DHT22;4644;48.858;9.184;2022-12-05T07:20:58;3.50;99.90
9219;DHT22;4644;48.858;9.184;2022-12-05T07:23:26;3.50;99.90
9219;DHT22;4644;48.858;9.184;2022-12-05T07:25:53;3.60;99.90
9219;DHT22;4644;48.858;9.184;2022-12-05T07:28:23;3.60;99.90
9219;DHT22;4644;48.858;9.184;2022-12-05T07:30:58;3.60;99.90
9219;DHT22;4644;48.858;9.184;2022-12-05T07:33:26;3.50;99.90
9219;DHT22;4644;48.858;9.184;2022-12-05T07:35:59;3.60;99.90
9219;DHT22;4644;48.858;9.184;2022-12-05T07:38:26;3.60;99.90
9219;DHT22;4644;48.858;9.184;2022-12-05T07:40:53;3.60;99.90
9219;DHT22;4644;48.858;9.184;2022-12-05T07:43:20;3.60;99.90
9219;DHT22;4644;48.858;9.184;2022-12-05T07:45:48;3.60;99.90
9219;DHT22;4644;48.858;9.184;2022-12-05T07:48:15;3.70;99.90
9219;DHT22;4644;48.858;9.184;2022-12-05T07:50:42;3.70;99.90
9219;DHT22;4644;48.858;9.184;2022-12-05T07:53:13;3.80;99.90
9219;DHT22;4644;48.858;9.184;2022-12-05T07:55:40;3.80;99.90
9219;DHT22;4644;48.858;9.184;2022-12-05T07:58:07;3.80;99.90
9219;DHT22;4644;48.858;9.184;2022-12-05T08:00:34;3.80;99.90
9219;DHT22;4644;48.858;9.184;2022-12-05T08:03:01;3.80;99.90
9219;DHT22;4644;48.858;9.184;2022-12-05T08:05:28;3.80;99.90
9219;DHT22;4644;48.858;9.184;2022-12-05T08:07:56;3.80;99.90
9219;DHT22;4644;48.858;9.184;2022-12-05T08:10:24;3.90;99.90
9219;DHT22;4644;48.858;9.184;2022-12-05T08:12:51;3.80;99.90
9219;DHT22;4644;48.858;9.184;2022-12-05T08:15:18;3.80;99.90
9219;DHT22;4644;48.858;9.184;2022-12-05T08:17:45;3.80;99.90
9219;DHT22;4644;48.858;9.184;2022-12-05T08:20:13;3.90;99.90
9219;DHT22;4644;48.858;9.184;2022-12-05T08:22:40;3.90;99.90
9219;DHT22;4644;48.858;9.184;2022-12-05T08:25:08;4.00;99.90
9219;DHT22;4644;48.858;9.184;2022-12-05T08:27:37;4.00;99.90
9219;DHT22;4644;48.858;9.184;2022-12-05T08:30:05;4.00;99.90
9219;DHT22;4644;48.858;9.184;2022-12-05T08:32:33;4.00;99.90
9219;DHT22;4644;48.858;9.184;2022-12-05T08:35:00;4.00;99.90
9219;DHT22;4644;48.858;9.184;2022-12-05T08:37:27;4.00;99.90
9219;DHT22;4644;48.858;9.184;2022-12-05T08:39:54;4.00;99.90
9219;DHT22;4644;48.858;9.184;2022-12-05T08:42:21;4.00;99.90
9219;DHT22;4644;48.858;9.184;2022-12-05T08:44:49;4.00;99.90
9219;DHT22;4644;48.858;9.184;2022-12-05T08:47:17;3.90;99.90
9219;DHT22;4644;48.858;9.184;2022-12-05T08:49:44;4.00;99.90
9219;DHT22;4644;48.858;9.184;2022-12-05T08:52:11;4.00;99.90
9219;DHT22;4644;48.858;9.184;2022-12-05T08:54:38;4.00;99.90
9219;DHT22;4644;48.858;9.184;2022-12-05T08:57:05;4.00;99.90
9219;DHT22;4644;48.858;9.184;2022-12-05T08:59:32;4.00;99.90
9219;DHT22;4644;48.858;9.184;2022-12-05T09:02:00;4.00;99.90
9219;DHT22;4644;48.858;9.184;2022-12-05T09:04:27;4.00;99.90
9219;DHT22;4644;48.858;9.184;2022-12-05T09:06:54;4.00;99.90
9219;DHT22;4644;48.858;9.184;2022-12-05T09:09:21;3.90;99.90
9219;DHT22;4644;48.858;9.184;2022-12-05T09:11:48;4.00;99.90
9219;DHT22;4644;48.858;9.184;2022-12-05T09:14:16;4.10;99.90
9219;DHT22;4644;48.858;9.184;2022-12-05T09:16:43;4.10;99.90
9219;DHT22;4644;48.858;9.184;2022-12-05T09:19:15;4.20;99.90
9219;DHT22;4644;48.858;9.184;2022-12-05T09:21:42;4.30;99.90
9219;DHT22;4644;48.858;9.184;2022-12-05T09:24:10;4.30;99.90
9219;DHT22;4644;48.858;9.184;2022-12-05T09:26:38;4.40;99.90
9219;DHT22;4644;48.858;9.184;2022-12-05T09:29:05;4.40;99.90
9219;DHT22;4644;48.858;9.184;2022-12-05T09:31:32;4.40;99.90
9219;DHT22;4644;48.858;9.184;2022-12-05T09:34:01;4.50;99.90
9219;DHT22;4644;48.858;9.184;2022-12-05T09:36:30;4.40;99.90
9219;DHT22;4644;48.858;9.184;2022-12-05T09:39:01;4.50;99.90
9219;DHT22;4644;48.858;9.184;2022-12-05T09:44:41;4.50;99.90
9219;DHT22;4644;48.858;9.184;2022-12-05T09:47:16;4.60;99.90
9219;DHT22;4644;48.858;9.184;2022-12-05T09:49:49;4.50;99.90
9219;DHT22;4644;48.858;9.184;2022-12-05T09:52:24;4.60;99.90
9219;DHT22;4644;48.858;9.184;2022-12-05T09:54:52;4.60;99.90
9219;DHT22;4644;48.858;9.184;2022-12-05T09:57:25;4.70;99.90
9219;DHT22;4644;48.858;9.184;2022-12-05T09:59:57;4.80;99.90
9219;DHT22;4644;48.858;9.184;2022-12-05T10:02:31;4.90;99.90
9219;DHT22;4644;48.858;9.184;2022-12-05T10:05:10;4.90;99.90
9219;DHT22;4644;48.858;9.184;2022-12-05T10:07:45;4.90;99.90
9219;DHT22;4644;48.858;9.184;2022-12-05T10:10:31;5.00;99.90
9219;DHT22;4644;48.858;9.184;2022-12-05T10:13:13;4.90;99.90
9219;DHT22;4644;48.858;9.184;2022-12-05T10:15:44;4.90;99.90
9219;DHT22;4644;48.858;9.184;2022-12-05T10:18:33;4.90;99.90
9219;DHT22;4644;48.858;9.184;2022-12-05T10:21:04;4.90;99.90
9219;DHT22;4644;48.858;9.184;2022-12-05T10:23:43;4.90;99.90
9219;DHT22;4644;48.858;9.184;2022-12-05T10:26:13;5.00;99.90
9219;DHT22;4644;48.858;9.184;2022-12-05T10:28:51;5.00;99.90
9219;DHT22;4644;48.858;9.184;2022-12-05T10:31:26;5.00;99.90
9219;DHT22;4644;48.858;9.184;2022-12-05T10:33:58;5.00;99.90
9219;DHT22;4644;48.858;9.184;2022-12-05T10:36:27;5.00;99.90
9219;DHT22;4644;48.858;9.184;2022-12-05T10:38:55;5.00;99.90
9219;DHT22;4644;48.858;9.184;2022-12-05T10:41:23;5.00;99.90
9219;DHT22;4644;48.858;9.184;2022-12-05T10:43:50;5.00;99.90
9219;DHT22;4644;48.858;9.184;2022-12-05T10:46:17;5.00;99.90
9219;DHT22;4644;48.858;9.184;2022-12-05T10:48:44;5.00;99.90
9219;DHT22;4644;48.858;9.184;2022-12-05T10:51:14;5.00;99.90
9219;DHT22;4644;48.858;9.184;2022-12-05T10:53:43;5.10;99.90
9219;DHT22;4644;48.858;9.184;2022-12-05T10:56:41;5.10;99.90
9219;DHT22;4644;48.858;9.184;2022-12-05T10:59:11;5.30;99.90
9219;DHT22;4644;48.858;9.184;2022-12-05T11:01:45;5.30;99.90
9219;DHT22;4644;48.858;9.184;2022-12-05T11:04:23;5.40;99.90
9219;DHT22;4644;48.858;9.184;2022-12-05T11:06:55;5.50;99.90
9219;DHT22;4644;48.858;9.184;2022-12-05T11:09:24;5.70;99.90
9219;DHT22;4644;48.858;9.184;2022-12-05T11:12:12;5.80;99.90
9219;DHT22;4644;48.858;9.184;2022-12-05T11:14:53;5.90;99.90
9219;DHT22;4644;48.858;9.184;2022-12-05T11:17:23;6.00;99.90
9219;DHT22;4644;48.858;9.184;2022-12-05T11:19:51;6.10;99.90
9219;DHT22;4644;48.858;9.184;2022-12-05T11:22:18;6.20;99.90
9219;DHT22;4644;48.858;9.184;2022-12-05T11:24:46;6.30;99.90
9219;DHT22;4644;48.858;9.184;2022-12-05T11:27:26;6.30;99.90
9219;DHT22;4644;48.858;9.184;2022-12-05T11:29:56;6.30;99.90
9219;DHT22;4644;48.858;9.184;2022-12-05T11:32:25;6.30;99.90
9219;DHT22;4644;48.858;9.184;2022-12-05T11:34:57;6.30;99.90
9219;DHT22;4644;48.858;9.184;2022-12-05T11:37:27;6.30;99.90
9219;DHT22;4644;48.858;9.184;2022-12-05T11:39:56;6.40;99.90
9219;DHT22;4644;48.858;9.184;2022-12-05T11:42:47;6.40;99.90
9219;DHT22;4644;48.858;9.184;2022-12-05T11:45:28;6.50;99.90
9219;DHT22;4644;48.858;9.184;2022-12-05T11:48:11;6.70;99.90
9219;DHT22;4644;48.858;9.184;2022-12-05T11:50:58;7.00;99.90
9219;DHT22;4644;48.858;9.184;2022-12-05T11:53:43;7.10;99.90
9219;DHT22;4644;48.858;9.184;2022-12-05T11:56:22;7.30;99.90
9219;DHT22;4644;48.858;9.184;2022-12-05T11:59:16;7.50;99.90
9219;DHT22;4644;48.858;9.184;2022-12-05T12:01:56;7.90;99.90
9219;DHT22;4644;48.858;9.184;2022-12-05T12:04:46;8.30;99.90
9219;DHT22;4644;48.858;9.184;2022-12-05T12:07:26;8.70;99.90
9219;DHT22;4644;48.858;9.184;2022-12-05T12:10:05;8.80;99.90
9219;DHT22;4644;48.858;9.184;2022-12-05T12:12:43;8.70;99.90
9219;DHT22;4644;48.858;9.184;2022-12-05T12:15:32;8.50;99.90
9219;DHT22;4644;48.858;9.184;2022-12-05T12:18:07;8.40;99.90
9219;DHT22;4644;48.858;9.184;2022-12-05T12:20:48;8.10;99.90
9219;DHT22;4644;48.858;9.184;2022-12-05T12:23:39;8.00;99.90
9219;DHT22;4644;48.858;9.184;2022-12-05T12:26:11;7.80;99.90
9219;DHT22;4644;48.858;9.184;2022-12-05T12:28:44;7.60;99.90
9219;DHT22;4644;48.858;9.184;2022-12-05T12:31:40;7.60;99.90
9219;DHT22;4644;48.858;9.184;2022-12-05T12:34:28;7.50;99.90
9219;DHT22;4644;48.858;9.184;2022-12-05T12:37:02;7.40;99.90
9219;DHT22;4644;48.858;9.184;2022-12-05T12:39:41;7.30;99.90
9219;DHT22;4644;48.858;9.184;2022-12-05T12:42:20;7.30;99.90
9219;DHT22;4644;48.858;9.184;2022-12-05T12:47:57;7.30;99.90
9219;DHT22;4644;48.858;9.184;2022-12-05T12:50:29;7.20;99.90
9219;DHT22;4644;48.858;9.184;2022-12-05T12:53:16;7.30;99.90
9219;DHT22;4644;48.858;9.184;2022-12-05T12:55:51;7.30;99.90
9219;DHT22;4644;48.858;9.184;2022-12-05T12:58:31;7.30;99.90
9219;DHT22;4644;48.858;9.184;2022-12-05T13:01:09;7.30;99.90
9219;DHT22;4644;48.858;9.184;2022-12-05T13:03:42;7.30;99.90
9219;DHT22;4644;48.858;9.184;2022-12-05T13:06:17;7.40;99.90
9219;DHT22;4644;48.858;9.184;2022-12-05T13:08:49;7.40;99.90
9219;DHT22;4644;48.858;9.184;2022-12-05T13:11:23;7.30;99.90
9219;DHT22;4644;48.858;9.184;2022-12-05T13:13:55;7.30;99.90
9219;DHT22;4644;48.858;9.184;2022-12-05T13:16:25;7.30;99.90
9219;DHT22;4644;48.858;9.184;2022-12-05T13:18:56;7.30;99.90
9219;DHT22;4644;48.858;9.184;2022-12-05T13:21:24;7.20;99.90
9219;DHT22;4644;48.858;9.184;2022-12-05T13:23:53;7.20;99.90
9219;DHT22;4644;48.858;9.184;2022-12-05T13:26:23;7.20;99.90
9219;DHT22;4644;48.858;9.184;2022-12-05T13:28:53;7.30;99.90
9219;DHT22;4644;48.858;9.184;2022-12-05T13:31:34;7.30;99.90
9219;DHT22;4644;48.858;9.184;2022-12-05T13:34:03;7.30;99.90
9219;DHT22;4644;48.858;9.184;2022-12-05T13:36:37;7.30;99.90
9219;DHT22;4644;48.858;9.184;2022-12-05T13:39:23;7.30;99.90
9219;DHT22;4644;48.858;9.184;2022-12-05T13:42:19;7.20;99.90
9219;DHT22;4644;48.858;9.184;2022-12-05T13:44:49;7.20;99.90
9219;DHT22;4644;48.858;9.184;2022-12-05T13:47:26;7.20;99.90
9219;DHT22;4644;48.858;9.184;2022-12-05T13:50:02;7.20;99.90
9219;DHT22;4644;48.858;9.184;2022-12-05T13:52:41;7.20;99.90
9219;DHT22;4644;48.858;9.184;2022-12-05T13:55:19;7.10;99.90
9219;DHT22;4644;48.858;9.184;2022-12-05T13:57:50;7.00;99.90
9219;DHT22;4644;48.858;9.184;2022-12-05T14:00:35;6.80;99.90
9219;DHT22;4644;48.858;9.184;2022-12-05T14:09:27;6.40;99.90
9219;DHT22;4644;48.858;9.184;2022-12-05T14:12:28;6.30;99.90
9219;DHT22;4644;48.858;9.184;2022-12-05T14:14:59;6.20;99.90
9219;DHT22;4644;48.858;9.184;2022-12-05T14:17:28;6.10;99.90
9219;DHT22;4644;48.858;9.184;2022-12-05T14:20:05;6.00;99.90
9219;DHT22;4644;48.858;9.184;2022-12-05T14:22:59;6.00;99.90
9219;DHT22;4644;48.858;9.184;2022-12-05T14:25:41;6.00;99.90
9219;DHT22;4644;48.858;9.184;2022-12-05T14:28:25;6.00;99.90
9219;DHT22;4644;48.858;9.184;2022-12-05T14:31:07;6.00;99.90
9219;DHT22;4644;48.858;9.184;2022-12-05T14:33:39;6.00;99.90
9219;DHT22;4644;48.858;9.184;2022-12-05T14:36:12;6.00;99.90
9219;DHT22;4644;48.858;9.184;2022-12-05T14:38:41;6.00;99.90
9219;DHT22;4644;48.858;9.184;2022-12-05T14:41:13;6.00;99.90
9219;DHT22;4644;48.858;9.184;2022-12-05T14:43:43;5.90;99.90
9219;DHT22;4644;48.858;9.184;2022-12-05T14:46:23;5.90;99.90
9219;DHT22;4644;48.858;9.184;2022-12-05T14:48:51;5.90;99.90
9219;DHT22;4644;48.858;9.184;2022-12-05T14:51:42;5.90;99.90
9219;DHT22;4644;48.858;9.184;2022-12-05T14:54:14;5.80;99.90
9219;DHT22;4644;48.858;9.184;2022-12-05T14:56:43;5.80;99.90
9219;DHT22;4644;48.858;9.184;2022-12-05T14:59:21;5.80;99.90
9219;DHT22;4644;48.858;9.184;2022-12-05T15:01:52;5.80;99.90
9219;DHT22;4644;48.858;9.184;2022-12-05T15:04:30;5.80;99.90
9219;DHT22;4644;48.858;9.184;2022-12-05T15:07:01;5.80;99.90
9219;DHT22;4644;48.858;9.184;2022-12-05T15:09:49;5.70;99.90
9219;DHT22;4644;48.858;9.184;2022-12-05T15:12:25;5.70;99.90
9219;DHT22;4644;48.858;9.184;2022-12-05T15:14:59;5.60;99.90
9219;DHT22;4644;48.858;9.184;2022-12-05T15:17:38;5.60;99.90
9219;DHT22;4644;48.858;9.184;2022-12-05T15:20:15;5.60;99.90
9219;DHT22;4644;48.858;9.184;2022-12-05T15:22:43;5.60;99.90
9219;DHT22;4644;48.858;9.184;2022-12-05T15:25:30;5.60;99.90
9219;DHT22;4644;48.858;9.184;2022-12-05T15:28:01;5.50;99.90
9219;DHT22;4644;48.858;9.184;2022-12-05T15:30:29;5.60;99.90
9219;DHT22;4644;48.858;9.184;2022-12-05T15:32:57;5.60;99.90
9219;DHT22;4644;48.858;9.184;2022-12-05T15:35:26;5.50;99.90
9219;DHT22;4644;48.858;9.184;2022-12-05T15:37:56;5.50;99.90
9219;DHT22;4644;48.858;9.184;2022-12-05T15:40:25;5.50;99.90
9219;DHT22;4644;48.858;9.184;2022-12-05T15:43:28;5.40;99.90
9219;DHT22;4644;48.858;9.184;2022-12-05T15:46:07;5.50;99.90
9219;DHT22;4644;48.858;9.184;2022-12-05T15:48:34;5.40;99.90
9219;DHT22;4644;48.858;9.184;2022-12-05T15:51:02;5.30;99.90
9219;DHT22;4644;48.858;9.184;2022-12-05T15:53:32;5.20;99.90
9219;DHT22;4644;48.858;9.184;2022-12-05T15:56:04;5.20;99.90
9219;DHT22;4644;48.858;9.184;2022-12-05T15:58:37;5.20;99.90
9219;DHT22;4644;48.858;9.184;2022-12-05T16:01:11;5.10;99.90
9219;DHT22;4644;48.858;9.184;2022-12-05T16:03:45;5.10;99.90
9219;DHT22;4644;48.858;9.184;2022-12-05T16:06:17;5.10;99.90
9219;DHT22;4644;48.858;9.184;2022-12-05T16:08:46;5.10;99.90
9219;DHT22;4644;48.858;9.184;2022-12-05T16:11:14;5.10;99.90
9219;DHT22;4644;48.858;9.184;2022-12-05T16:13:45;5.00;99.90
9219;DHT22;4644;48.858;9.184;2022-12-05T16:16:15;5.00;99.90
9219;DHT22;4644;48.858;9.184;2022-12-05T16:18:48;5.00;99.90
9219;DHT22;4644;48.858;9.184;2022-12-05T16:21:33;5.00;99.90
9219;DHT22;4644;48.858;9.184;2022-12-05T16:24:05;5.00;99.90
9219;DHT22;4644;48.858;9.184;2022-12-05T16:26:36;5.00;99.90
9219;DHT22;4644;48.858;9.184;2022-12-05T16:29:05;4.90;99.90
9219;DHT22;4644;48.858;9.184;2022-12-05T16:31:34;4.90;99.90
9219;DHT22;4644;48.858;9.184;2022-12-05T16:34:04;4.90;99.90
9219;DHT22;4644;48.858;9.184;2022-12-05T16:36:32;4.90;99.90
9219;DHT22;4644;48.858;9.184;2022-12-05T16:39:01;4.90;99.90
9219;DHT22;4644;48.858;9.184;2022-12-05T16:41:33;4.90;99.90
9219;DHT22;4644;48.858;9.184;2022-12-05T16:44:01;4.90;99.90
9219;DHT22;4644;48.858;9.184;2022-12-05T16:46:45;4.90;99.90
9219;DHT22;4644;48.858;9.184;2022-12-05T16:49:18;5.00;99.90
9219;DHT22;4644;48.858;9.184;2022-12-05T16:51:55;5.00;99.90
9219;DHT22;4644;48.858;9.184;2022-12-05T16:54:24;5.00;99.90
9219;DHT22;4644;48.858;9.184;2022-12-05T16:56:51;5.00;99.90
9219;DHT22;4644;48.858;9.184;2022-12-05T16:59:22;5.00;99.90
9219;DHT22;4644;48.858;9.184;2022-12-05T17:01:52;5.00;99.90
9219;DHT22;4644;48.858;9.184;2022-12-05T17:04:19;4.90;99.90
9219;DHT22;4644;48.858;9.184;2022-12-05T17:06:47;5.00;99.90
9219;DHT22;4644;48.858;9.184;2022-12-05T17:09:14;5.00;99.90